createdAt,value
2022-10-15T00:01:41.540Z,9.33
2022-10-15T00:04:08.865Z,9.07
2022-10-15T00:06:36.429Z,9.10
2022-10-15T00:09:03.634Z,9.47
2022-10-15T00:11:31.697Z,9.63
2022-10-15T00:14:00.349Z,10.17
2022-10-15T00:16:28.711Z,10.30
2022-10-15T00:18:57.422Z,11.37
2022-10-15T00:21:24.736Z,12.10
2022-10-15T00:23:52.046Z,10.70
2022-10-15T00:26:24.445Z,12.07
2022-10-15T00:28:53.146Z,11.23
2022-10-15T00:31:24.638Z,12.27
2022-10-15T00:33:52.257Z,12.07
2022-10-15T00:36:24.778Z,12.60
2022-10-15T00:38:52.702Z,12.70
2022-10-15T00:41:23.816Z,11.37
2022-10-15T00:43:54.046Z,12.30
2022-10-15T00:46:32.413Z,13.60
2022-10-15T00:49:20.096Z,12.97
2022-10-15T00:51:50.111Z,13.60
2022-10-15T00:54:16.810Z,12.53
2022-10-15T00:56:45.454Z,13.13
2022-10-15T00:59:13.296Z,12.97
2022-10-15T01:01:42.883Z,12.87
2022-10-15T01:04:09.830Z,13.20
2022-10-15T01:06:37.173Z,13.03
2022-10-15T01:09:04.583Z,12.90
2022-10-15T01:11:39.943Z,13.37
2022-10-15T01:14:25.923Z,14.40
2022-10-15T01:17:10.561Z,13.63
2022-10-15T01:20:15.262Z,13.63
2022-10-15T01:22:42.089Z,13.20
2022-10-15T01:25:24.415Z,14.07
2022-10-15T01:28:20.866Z,13.40
2022-10-15T01:30:51.411Z,13.23
2022-10-15T01:33:45.900Z,14.17
2022-10-15T01:36:26.521Z,13.63
2022-10-15T01:39:25.584Z,14.20
2022-10-15T01:42:01.017Z,14.27
2022-10-15T01:44:32.229Z,15.20
2022-10-15T01:47:35.003Z,14.57
2022-10-15T01:50:02.505Z,15.07
2022-10-15T01:52:33.760Z,15.33
2022-10-15T01:55:01.618Z,15.47
2022-10-15T01:57:30.260Z,16.10
2022-10-15T01:59:58.480Z,15.63
2022-10-15T02:02:26.087Z,16.13
2022-10-15T02:04:53.051Z,17.83
2022-10-15T02:07:38.942Z,15.83
2022-10-15T02:10:35.446Z,16.73
2022-10-15T02:13:13.991Z,18.00
2022-10-15T02:15:52.950Z,16.90
2022-10-15T02:18:28.785Z,17.50
2022-10-15T02:21:07.860Z,17.50
2022-10-15T02:23:39.550Z,16.67
2022-10-15T02:26:08.646Z,17.00
2022-10-15T02:28:37.220Z,17.17
2022-10-15T02:31:05.631Z,17.13
2022-10-15T02:33:33.474Z,16.77
2022-10-15T02:36:00.424Z,17.10
2022-10-15T02:38:28.554Z,17.00
2022-10-15T02:40:55.645Z,15.63
2022-10-15T02:43:22.751Z,17.23
2022-10-15T02:45:50.647Z,15.43
2022-10-15T02:48:18.532Z,17.20
2022-10-15T02:50:47.242Z,16.97
2022-10-15T02:53:14.042Z,17.57
2022-10-15T02:55:42.770Z,16.47
2022-10-15T02:58:09.540Z,17.30
2022-10-15T03:00:36.340Z,16.60
2022-10-15T03:03:03.486Z,16.80
2022-10-15T03:05:30.718Z,16.80
2022-10-15T03:08:00.123Z,16.90
2022-10-15T03:10:28.170Z,16.97
2022-10-15T03:12:55.292Z,16.77
2022-10-15T03:15:22.817Z,17.47
2022-10-15T03:17:51.717Z,16.03
2022-10-15T03:20:18.677Z,16.00
2022-10-15T03:22:45.622Z,15.83
2022-10-15T03:25:12.831Z,15.63
2022-10-15T03:27:40.036Z,15.97
2022-10-15T03:30:20.032Z,16.50
2022-10-15T03:32:48.343Z,15.80
2022-10-15T03:35:15.893Z,17.00
2022-10-15T03:37:43.002Z,16.27
2022-10-15T03:40:13.730Z,15.40
2022-10-15T03:42:42.886Z,15.60
2022-10-15T03:45:11.123Z,15.57
2022-10-15T03:47:38.890Z,15.50
2022-10-15T03:50:06.066Z,15.13
2022-10-15T03:52:33.009Z,14.90
2022-10-15T03:54:59.896Z,14.73
2022-10-15T03:57:26.783Z,15.30
2022-10-15T04:00:00.007Z,15.00
2022-10-15T04:02:28.491Z,14.30
2022-10-15T04:04:56.736Z,14.40
2022-10-15T04:07:23.855Z,14.67
2022-10-15T04:09:51.243Z,13.93
2022-10-15T04:12:33.663Z,13.87
2022-10-15T04:15:01.842Z,14.53
2022-10-15T04:17:28.631Z,12.50
2022-10-15T04:19:55.338Z,12.80
2022-10-15T04:22:22.552Z,12.87
2022-10-15T04:24:55.685Z,12.00
2022-10-15T04:27:27.439Z,12.60
2022-10-15T04:30:02.816Z,11.10
2022-10-15T04:32:30.127Z,10.87
2022-10-15T04:34:57.371Z,12.43
2022-10-15T04:37:39.372Z,11.47
2022-10-15T04:40:06.952Z,11.23
2022-10-15T04:42:34.082Z,11.03
2022-10-15T04:45:00.967Z,10.70
2022-10-15T04:47:28.383Z,10.87
2022-10-15T04:50:07.503Z,10.67
2022-10-15T04:52:54.136Z,10.67
2022-10-15T04:55:21.848Z,10.43
2022-10-15T04:57:49.643Z,10.37
2022-10-15T05:00:23.961Z,9.97
2022-10-15T05:03:24.887Z,9.83
2022-10-15T05:06:06.675Z,10.60
2022-10-15T05:08:35.472Z,10.53
2022-10-15T05:11:23.211Z,10.60
2022-10-15T05:13:50.995Z,10.07
2022-10-15T05:16:25.977Z,10.10
2022-10-15T05:18:57.483Z,9.77
2022-10-15T05:21:24.726Z,9.47
2022-10-15T05:23:55.583Z,10.13
2022-10-15T05:26:41.258Z,10.20
2022-10-15T05:29:09.288Z,9.77
2022-10-15T05:31:36.082Z,9.60
2022-10-15T05:34:15.391Z,9.00
2022-10-15T05:36:51.532Z,9.30
2022-10-15T05:39:18.710Z,9.13
2022-10-15T05:41:46.110Z,8.77
2022-10-15T05:44:14.789Z,8.57
2022-10-15T05:46:46.099Z,9.00
2022-10-15T05:49:19.850Z,8.03
2022-10-15T05:54:43.298Z,7.73
2022-10-15T05:57:10.111Z,8.13
2022-10-15T05:59:36.851Z,8.17
2022-10-15T06:02:03.772Z,7.80
2022-10-15T06:04:35.553Z,7.07
2022-10-15T06:07:02.964Z,7.70
2022-10-15T06:09:30.732Z,7.13
2022-10-15T06:11:58.842Z,7.10
2022-10-15T06:14:25.777Z,7.27
2022-10-15T06:16:54.809Z,7.13
2022-10-15T06:19:24.617Z,7.10
2022-10-15T06:21:51.736Z,5.73
2022-10-15T06:24:21.106Z,6.90
2022-10-15T06:26:48.133Z,6.30
2022-10-15T06:29:14.897Z,5.17
2022-10-15T06:31:41.607Z,5.60
2022-10-15T06:34:08.310Z,5.43
2022-10-15T06:36:35.157Z,5.00
2022-10-15T06:39:02.266Z,5.17
2022-10-15T06:41:29.391Z,4.93
2022-10-15T06:43:56.169Z,4.87
2022-10-15T06:46:23.839Z,4.20
2022-10-15T06:48:52.039Z,4.50
2022-10-15T06:51:21.524Z,3.70
2022-10-15T06:53:50.339Z,4.10
2022-10-15T06:56:17.150Z,4.07
2022-10-15T06:58:45.203Z,3.93
2022-10-15T07:01:12.672Z,3.97
2022-10-15T07:03:40.239Z,3.97
2022-10-15T07:06:08.719Z,3.30
2022-10-15T07:08:36.075Z,3.73
2022-10-15T07:11:05.068Z,3.00
2022-10-15T07:13:33.805Z,3.27
2022-10-15T07:16:19.210Z,3.23
2022-10-15T07:18:48.455Z,2.40
2022-10-15T07:21:15.370Z,2.70
2022-10-15T07:23:43.255Z,2.90
2022-10-15T07:26:10.048Z,3.00
2022-10-15T07:28:36.820Z,2.37
2022-10-15T07:31:06.384Z,2.80
2022-10-15T07:33:36.480Z,2.30
2022-10-15T07:36:08.081Z,2.63
2022-10-15T07:38:35.599Z,2.30
2022-10-15T07:41:03.937Z,2.43
2022-10-15T07:43:32.727Z,2.30
2022-10-15T07:45:59.640Z,2.60
2022-10-15T07:48:26.523Z,2.60
2022-10-15T07:50:57.747Z,2.50
2022-10-15T07:53:24.799Z,1.93
2022-10-15T07:56:02.602Z,2.17
2022-10-15T07:58:34.674Z,2.00
2022-10-15T08:01:05.521Z,1.70
2022-10-15T08:03:33.963Z,2.00
2022-10-15T08:06:01.753Z,2.07
2022-10-15T08:08:29.104Z,1.90
2022-10-15T08:11:17.003Z,2.30
2022-10-15T08:13:49.492Z,1.90
2022-10-15T08:16:17.072Z,1.53
2022-10-15T08:18:49.793Z,1.70
2022-10-15T08:21:16.906Z,1.87
2022-10-15T08:23:43.563Z,1.67
2022-10-15T08:26:10.386Z,1.60
2022-10-15T08:28:37.321Z,1.47
2022-10-15T08:31:08.052Z,1.47
2022-10-15T08:33:36.244Z,1.30
2022-10-15T08:36:05.695Z,1.37
2022-10-15T08:38:32.706Z,1.53
2022-10-15T08:41:00.774Z,1.20
2022-10-15T08:43:36.031Z,1.50
2022-10-15T08:46:09.935Z,1.27
2022-10-15T08:48:41.703Z,1.10
2022-10-15T08:51:21.256Z,1.03
2022-10-15T08:53:51.580Z,0.93
2022-10-15T08:56:22.347Z,0.90
2022-10-15T08:59:24.530Z,1.07
2022-10-15T09:01:58.670Z,0.73
2022-10-15T09:04:32.934Z,0.90
2022-10-15T09:07:10.240Z,0.77
2022-10-15T09:09:45.126Z,0.60
2022-10-15T09:12:33.491Z,0.70
2022-10-15T09:15:01.108Z,0.50
2022-10-15T09:17:30.252Z,0.70
2022-10-15T09:19:57.943Z,0.50
2022-10-15T09:22:28.268Z,0.50
2022-10-15T09:24:55.324Z,0.50
2022-10-15T09:27:33.402Z,0.53
2022-10-15T09:30:17.458Z,0.50
2022-10-15T09:33:02.692Z,0.63
2022-10-15T09:35:36.858Z,0.60
2022-10-15T09:38:26.117Z,0.60
2022-10-15T09:40:59.561Z,0.70
2022-10-15T09:43:31.281Z,0.77
2022-10-15T09:45:58.361Z,0.70
2022-10-15T09:48:28.511Z,0.70
2022-10-15T09:51:03.570Z,0.70
2022-10-15T09:54:05.833Z,0.60
2022-10-15T09:56:37.372Z,0.70
2022-10-15T09:59:06.002Z,0.70
2022-10-15T10:01:36.616Z,0.73
2022-10-15T10:04:33.681Z,1.07
2022-10-15T10:07:07.673Z,0.90
2022-10-15T10:09:37.554Z,0.80
2022-10-15T10:12:07.016Z,1.10
2022-10-15T10:14:37.283Z,1.20
2022-10-15T10:17:15.614Z,1.03
2022-10-15T10:19:43.022Z,0.87
2022-10-15T10:22:17.889Z,0.90
2022-10-15T10:24:48.717Z,0.90
2022-10-15T10:27:25.419Z,1.30
2022-10-15T10:30:01.409Z,0.90
2022-10-15T10:32:38.631Z,0.93
2022-10-15T10:35:06.103Z,1.10
2022-10-15T10:37:42.977Z,1.23
2022-10-15T10:40:30.333Z,1.10
2022-10-15T10:43:16.714Z,1.03
2022-10-15T10:46:05.092Z,0.80
2022-10-15T10:48:48.166Z,0.87
2022-10-15T10:51:27.126Z,0.80
2022-10-15T10:54:02.318Z,0.80
2022-10-15T10:56:37.803Z,0.87
2022-10-15T10:59:21.146Z,0.90
2022-10-15T11:01:49.721Z,0.73
2022-10-15T11:04:26.184Z,1.00
2022-10-15T11:07:04.515Z,0.80
2022-10-15T11:09:56.240Z,0.57
2022-10-15T11:12:29.117Z,0.90
2022-10-15T11:15:28.674Z,0.70
2022-10-15T11:18:18.316Z,0.93
2022-10-15T11:21:13.357Z,0.80
2022-10-15T11:23:51.932Z,0.80
2022-10-15T11:26:37.150Z,0.80
2022-10-15T11:29:37.856Z,1.13
2022-10-15T11:32:37.410Z,1.00
2022-10-15T11:35:48.184Z,0.80
2022-10-15T11:38:32.552Z,0.77
2022-10-15T11:41:05.471Z,1.20
2022-10-15T11:43:48.980Z,3.27
2022-10-15T11:46:28.670Z,2.63
2022-10-15T11:49:38.065Z,3.23
2022-10-15T11:52:22.579Z,1.40
2022-10-15T11:55:37.999Z,2.80
2022-10-15T11:58:13.103Z,1.70
2022-10-15T12:00:45.583Z,1.00
2022-10-15T12:03:16.760Z,0.90
2022-10-15T12:05:55.405Z,1.00
2022-10-15T12:08:24.078Z,1.00
2022-10-15T12:11:09.776Z,1.03
2022-10-15T12:13:41.152Z,1.10
2022-10-15T12:16:13.304Z,1.23
2022-10-15T12:18:51.542Z,1.23
2022-10-15T12:21:40.102Z,0.93
2022-10-15T12:24:39.660Z,2.30
2022-10-15T12:27:24.156Z,1.07
2022-10-15T12:29:53.541Z,1.07
2022-10-15T12:32:25.563Z,1.10
2022-10-15T12:35:00.652Z,1.00
2022-10-15T12:37:30.049Z,0.70
2022-10-15T12:39:59.088Z,1.00
2022-10-15T12:42:34.718Z,0.77
2022-10-15T12:45:04.592Z,1.00
2022-10-15T12:47:51.008Z,1.00
2022-10-15T12:50:43.046Z,0.93
2022-10-15T12:53:34.697Z,0.73
2022-10-15T12:56:10.663Z,0.90
2022-10-15T12:58:49.859Z,0.90
2022-10-15T13:01:19.724Z,0.70
2022-10-15T13:03:49.892Z,0.90
2022-10-15T13:06:25.611Z,0.80
2022-10-15T13:09:14.450Z,0.70
2022-10-15T13:11:55.435Z,0.80
2022-10-15T13:14:39.684Z,0.70
2022-10-15T13:17:16.033Z,0.70
2022-10-15T13:20:01.089Z,0.67
2022-10-15T13:22:29.966Z,0.80
2022-10-15T13:25:06.010Z,0.77
2022-10-15T13:27:37.714Z,0.77
2022-10-15T13:30:09.926Z,0.70
2022-10-15T13:35:50.789Z,0.93
2022-10-15T13:38:24.866Z,0.80
2022-10-15T13:43:58.633Z,0.90
2022-10-15T13:46:29.802Z,0.73
2022-10-15T13:49:01.394Z,0.80
2022-10-15T13:51:33.998Z,0.67
2022-10-15T13:54:03.098Z,0.70
2022-10-15T13:56:32.189Z,0.87
2022-10-15T13:59:01.631Z,0.70
2022-10-15T14:01:30.180Z,0.67
2022-10-15T14:04:01.728Z,0.80
2022-10-15T14:06:35.196Z,1.10
2022-10-15T14:09:16.801Z,0.83
2022-10-15T14:11:43.786Z,1.20
2022-10-15T14:14:41.643Z,1.20
2022-10-15T14:17:13.170Z,0.97
2022-10-15T14:19:40.409Z,0.80
2022-10-15T14:22:07.361Z,0.80
2022-10-15T14:24:38.602Z,1.00
2022-10-15T14:27:16.834Z,0.97
2022-10-15T14:29:45.693Z,1.00
2022-10-15T14:32:21.492Z,1.03
2022-10-15T14:34:49.460Z,0.97
2022-10-15T14:37:35.403Z,1.10
2022-10-15T14:40:22.422Z,1.43
2022-10-15T14:43:05.567Z,0.70
2022-10-15T14:45:41.013Z,0.87
2022-10-15T14:48:17.544Z,1.00
2022-10-15T14:50:44.702Z,1.10
2022-10-15T14:53:18.066Z,1.17
2022-10-15T14:55:49.174Z,0.83
2022-10-15T14:58:20.934Z,2.50
2022-10-15T15:00:51.970Z,0.93
2022-10-15T15:03:26.622Z,0.97
2022-10-15T15:06:22.419Z,0.73
2022-10-15T15:08:51.792Z,0.73
2022-10-15T15:42:59.840Z,1.50
2022-10-15T15:45:27.973Z,0.90
2022-10-15T15:47:58.769Z,2.03
2022-10-15T15:50:31.544Z,1.33
2022-10-15T15:52:58.720Z,0.90
2022-10-15T15:55:30.746Z,0.93
2022-10-15T15:57:57.771Z,1.10
2022-10-15T16:00:24.974Z,1.27
2022-10-15T16:02:54.135Z,1.30
2022-10-15T16:05:25.889Z,1.70
2022-10-15T16:07:52.703Z,1.37
2022-10-15T16:10:19.497Z,1.00
2022-10-15T16:12:51.668Z,0.90
2022-10-15T16:15:18.790Z,1.10
2022-10-15T16:17:45.576Z,1.00
2022-10-15T16:20:12.953Z,1.00
2022-10-15T16:22:40.155Z,1.10
2022-10-15T16:25:12.358Z,1.30
2022-10-15T16:27:48.837Z,1.60
2022-10-15T16:30:16.206Z,1.47
2022-10-15T16:33:26.926Z,1.30
2022-10-15T16:35:53.922Z,1.33
2022-10-15T16:38:20.593Z,1.20
2022-10-15T16:40:47.548Z,1.00
2022-10-15T16:43:14.483Z,1.07
2022-10-15T16:45:41.314Z,1.27
2022-10-15T16:48:08.185Z,1.07
2022-10-15T16:50:34.956Z,1.10
2022-10-15T16:53:02.270Z,0.97
2022-10-15T16:55:31.102Z,0.87
2022-10-15T16:57:57.831Z,1.13
2022-10-15T17:00:24.665Z,0.80
2022-10-15T17:02:52.120Z,0.90
2022-10-15T17:05:18.907Z,1.20
2022-10-15T17:07:45.703Z,0.80
2022-10-15T17:10:14.796Z,1.20
2022-10-15T17:12:42.363Z,0.83
2022-10-15T17:15:09.717Z,0.83
2022-10-15T17:17:36.865Z,0.90
2022-10-15T17:20:03.935Z,1.13
2022-10-15T17:22:31.149Z,1.20
2022-10-15T17:24:58.169Z,1.47
2022-10-15T17:27:38.896Z,1.40
2022-10-15T17:30:14.308Z,0.93
2022-10-15T17:35:52.561Z,1.20
2022-10-15T17:38:34.371Z,1.00
2022-10-15T17:41:08.389Z,1.23
2022-10-15T17:43:40.281Z,1.37
2022-10-15T17:46:11.383Z,1.10
2022-10-15T17:48:39.462Z,1.33
2022-10-15T17:51:07.912Z,1.20
2022-10-15T17:53:35.229Z,1.20
2022-10-15T17:56:14.713Z,1.40
2022-10-15T17:58:42.021Z,0.93
2022-10-15T18:01:27.994Z,1.20
2022-10-15T18:04:07.819Z,2.17
2022-10-15T18:06:43.410Z,1.40
2022-10-15T18:09:15.158Z,1.40
2022-10-15T18:11:42.216Z,1.30
2022-10-15T18:14:09.012Z,1.50
2022-10-15T18:16:36.777Z,1.60
2022-10-15T18:19:03.601Z,2.57
2022-10-15T18:21:30.533Z,2.00
2022-10-15T18:24:08.490Z,1.90
2022-10-15T18:26:35.296Z,1.50
2022-10-15T18:29:02.197Z,1.93
2022-10-15T18:31:31.326Z,2.00
2022-10-15T18:34:00.410Z,1.63
2022-10-15T18:36:29.232Z,1.50
2022-10-15T18:38:56.845Z,1.70
2022-10-15T18:41:26.508Z,1.73
2022-10-15T18:43:58.150Z,2.07
2022-10-15T18:46:31.237Z,2.00
2022-10-15T18:48:58.289Z,1.73
2022-10-15T18:51:27.294Z,1.83
2022-10-15T18:53:54.145Z,2.17
2022-10-15T18:56:21.801Z,2.00
2022-10-15T18:58:48.589Z,1.90
2022-10-15T19:01:39.216Z,2.90
2022-10-15T19:04:13.778Z,2.50
2022-10-15T19:06:43.071Z,2.63
2022-10-15T19:09:13.170Z,2.60
2022-10-15T19:11:41.033Z,2.97
2022-10-15T19:14:07.974Z,2.93
2022-10-15T19:16:36.020Z,2.70
2022-10-15T19:19:06.469Z,2.67
2022-10-15T19:21:33.417Z,2.87
2022-10-15T19:24:00.343Z,2.87
2022-10-15T19:26:28.525Z,2.27
2022-10-15T19:28:56.479Z,3.00
2022-10-15T19:31:25.893Z,2.70
2022-10-15T19:33:53.983Z,2.50
2022-10-15T19:36:26.684Z,3.03
2022-10-15T19:38:53.499Z,2.83
2022-10-15T19:41:20.430Z,2.43
2022-10-15T19:43:47.588Z,2.93
2022-10-15T19:46:14.733Z,2.50
2022-10-15T19:48:41.902Z,2.50
2022-10-15T19:51:08.848Z,2.67
2022-10-15T19:53:35.859Z,2.57
2022-10-15T19:56:06.182Z,2.73
2022-10-15T19:58:34.572Z,2.60
2022-10-15T20:01:02.939Z,2.50
2022-10-15T20:03:30.615Z,3.00
2022-10-15T20:06:00.646Z,3.00
2022-10-15T20:08:27.377Z,2.90
2022-10-15T20:10:54.515Z,3.00
2022-10-15T20:13:22.902Z,3.03
2022-10-15T20:15:52.929Z,3.20
2022-10-15T20:18:21.159Z,2.97
2022-10-15T20:20:48.408Z,3.10
2022-10-15T20:23:16.898Z,2.80
2022-10-15T20:25:44.429Z,2.90
2022-10-15T20:28:13.002Z,3.07
2022-10-15T20:30:40.816Z,3.00
2022-10-15T20:33:08.563Z,2.80
2022-10-15T20:35:37.543Z,2.93
2022-10-15T20:38:04.964Z,3.20
2022-10-15T20:40:33.541Z,2.80
2022-10-15T20:43:00.762Z,2.80
2022-10-15T20:45:33.453Z,2.67
2022-10-15T20:48:00.829Z,3.07
2022-10-15T20:50:31.056Z,2.43
2022-10-15T20:52:58.434Z,2.83
2022-10-15T20:55:25.182Z,2.30
2022-10-15T20:57:52.076Z,2.50
2022-10-15T21:00:19.498Z,3.00
2022-10-15T21:02:46.503Z,2.60
2022-10-15T21:05:15.045Z,2.30
2022-10-15T21:07:41.791Z,2.57
2022-10-15T21:10:08.912Z,2.10
2022-10-15T21:12:35.658Z,2.10
2022-10-15T21:15:05.450Z,2.47
2022-10-15T21:17:32.359Z,2.13
2022-10-15T21:20:01.448Z,2.27
2022-10-15T21:22:28.675Z,2.60
2022-10-15T21:24:55.585Z,2.40
2022-10-15T21:27:22.949Z,2.20
2022-10-15T21:29:53.321Z,3.60
2022-10-15T21:32:20.843Z,2.70
2022-10-15T21:34:47.887Z,3.27
2022-10-15T21:37:17.338Z,2.97
2022-10-15T21:39:44.067Z,2.40
2022-10-15T21:42:12.099Z,2.13
2022-10-15T21:44:39.114Z,2.53
2022-10-15T21:47:06.112Z,2.10
2022-10-15T21:49:33.206Z,1.80
2022-10-15T21:52:00.626Z,1.97
2022-10-15T21:54:27.352Z,1.60
2022-10-15T21:57:00.183Z,2.00
2022-10-15T21:59:30.155Z,1.50
2022-10-15T22:02:03.940Z,1.80
2022-10-15T22:04:33.847Z,1.57
2022-10-15T22:07:01.137Z,1.83
2022-10-15T22:09:28.117Z,1.93
2022-10-15T22:11:55.049Z,1.70
2022-10-15T22:14:21.825Z,1.83
2022-10-15T22:16:48.496Z,1.50
2022-10-15T22:19:16.531Z,1.77
2022-10-15T22:21:44.008Z,1.70
2022-10-15T22:24:14.930Z,1.77
2022-10-15T22:26:44.484Z,1.90
2022-10-15T22:29:19.713Z,1.90
2022-10-15T22:31:47.163Z,1.70
2022-10-15T22:34:14.023Z,1.60
2022-10-15T22:36:41.106Z,1.90
2022-10-15T22:39:08.314Z,1.80
2022-10-15T22:41:41.948Z,1.87
2022-10-15T22:44:16.672Z,1.80
2022-10-15T22:47:00.556Z,1.80
2022-10-15T22:49:28.108Z,2.00
2022-10-15T22:51:54.940Z,1.80
2022-10-15T22:54:22.758Z,1.70
2022-10-15T22:56:50.900Z,1.80
2022-10-15T22:59:18.537Z,1.70
2022-10-15T23:01:45.647Z,1.47
2022-10-15T23:04:14.489Z,1.60
2022-10-15T23:06:41.667Z,1.53
2022-10-15T23:09:09.353Z,1.50
2022-10-15T23:11:38.749Z,1.40
2022-10-15T23:14:09.777Z,1.40
2022-10-15T23:16:38.952Z,1.33
2022-10-15T23:19:08.293Z,1.37
2022-10-15T23:21:37.696Z,1.40
2022-10-15T23:24:05.995Z,1.30
2022-10-15T23:26:33.078Z,1.53
2022-10-15T23:29:01.319Z,1.40
2022-10-15T23:31:33.056Z,1.03
2022-10-15T23:34:01.093Z,1.10
2022-10-15T23:36:28.860Z,1.10
2022-10-15T23:38:57.786Z,1.10
2022-10-15T23:41:24.969Z,1.07
2022-10-15T23:43:52.596Z,1.00
2022-10-15T23:46:19.993Z,1.00
2022-10-15T23:48:47.146Z,1.10
2022-10-15T23:51:24.654Z,0.80
2022-10-15T23:53:52.516Z,1.30
2022-10-15T23:56:19.854Z,0.97
2022-10-15T23:58:52.477Z,1.00
